sensor_id;sensor_type;location;lat;lon;timestamp;P1;durP1;ratioP1;P2;durP2;ratioP2
40595;SDS011;26304;48.794;9.820;2022-12-20T00:01:15;4.85;;;4.45;;
40595;SDS011;26304;48.794;9.820;2022-12-20T00:07:00;4.78;;;4.38;;
40595;SDS011;26304;48.794;9.820;2022-12-20T00:12:43;4.38;;;4.07;;
40595;SDS011;26304;48.794;9.820;2022-12-20T00:18:26;4.72;;;4.32;;
40595;SDS011;26304;48.794;9.820;2022-12-20T00:24:09;4.63;;;4.22;;
40595;SDS011;26304;48.794;9.820;2022-12-20T00:29:52;4.43;;;4.03;;
40595;SDS011;26304;48.794;9.820;2022-12-20T00:35:35;4.75;;;4.35;;
40595;SDS011;26304;48.794;9.820;2022-12-20T00:41:23;4.57;;;4.18;;
40595;SDS011;26304;48.794;9.820;2022-12-20T00:47:08;4.00;;;3.70;;
40595;SDS011;26304;48.794;9.820;2022-12-20T00:52:51;4.50;;;4.00;;
40595;SDS011;26304;48.794;9.820;2022-12-20T00:58:34;4.35;;;3.97;;
40595;SDS011;26304;48.794;9.820;2022-12-20T01:04:19;4.20;;;3.80;;
40595;SDS011;26304;48.794;9.820;2022-12-20T01:10:01;4.80;;;4.40;;
40595;SDS011;26304;48.794;9.820;2022-12-20T01:15:44;4.07;;;3.78;;
40595;SDS011;26304;48.794;9.820;2022-12-20T01:21:28;3.75;;;3.45;;
40595;SDS011;26304;48.794;9.820;2022-12-20T01:27:10;3.92;;;3.63;;
40595;SDS011;26304;48.794;9.820;2022-12-20T01:32:53;4.38;;;3.97;;
40595;SDS011;26304;48.794;9.820;2022-12-20T01:38:37;3.90;;;3.60;;
40595;SDS011;26304;48.794;9.820;2022-12-20T01:50:35;5.53;;;3.90;;
40595;SDS011;26304;48.794;9.820;2022-12-20T01:56:19;3.83;;;3.50;;
40595;SDS011;26304;48.794;9.820;2022-12-20T02:02:04;3.92;;;3.63;;
40595;SDS011;26304;48.794;9.820;2022-12-20T02:07:50;4.05;;;3.65;;
40595;SDS011;26304;48.794;9.820;2022-12-20T02:13:36;3.88;;;3.47;;
40595;SDS011;26304;48.794;9.820;2022-12-20T02:19:35;3.97;;;3.67;;
40595;SDS011;26304;48.794;9.820;2022-12-20T02:25:37;3.67;;;3.40;;
40595;SDS011;26304;48.794;9.820;2022-12-20T02:31:29;3.90;;;3.60;;
40595;SDS011;26304;48.794;9.820;2022-12-20T02:37:18;3.95;;;3.65;;
40595;SDS011;26304;48.794;9.820;2022-12-20T02:43:02;3.97;;;3.67;;
40595;SDS011;26304;48.794;9.820;2022-12-20T02:49:11;3.90;;;3.60;;
40595;SDS011;26304;48.794;9.820;2022-12-20T02:54:55;3.17;;;2.97;;
40595;SDS011;26304;48.794;9.820;2022-12-20T03:00:41;3.83;;;3.53;;
40595;SDS011;26304;48.794;9.820;2022-12-20T03:06:28;3.60;;;3.30;;
40595;SDS011;26304;48.794;9.820;2022-12-20T03:12:11;3.42;;;3.17;;
40595;SDS011;26304;48.794;9.820;2022-12-20T03:17:55;3.53;;;3.22;;
40595;SDS011;26304;48.794;9.820;2022-12-20T03:23:39;3.50;;;2.97;;
40595;SDS011;26304;48.794;9.820;2022-12-20T03:29:21;3.13;;;2.92;;
40595;SDS011;26304;48.794;9.820;2022-12-20T03:35:04;2.90;;;2.70;;
40595;SDS011;26304;48.794;9.820;2022-12-20T03:40:48;3.33;;;2.75;;
40595;SDS011;26304;48.794;9.820;2022-12-20T03:46:31;2.72;;;2.53;;
40595;SDS011;26304;48.794;9.820;2022-12-20T03:52:13;3.10;;;2.90;;
40595;SDS011;26304;48.794;9.820;2022-12-20T03:57:57;3.33;;;3.10;;
40595;SDS011;26304;48.794;9.820;2022-12-20T04:03:39;2.92;;;2.72;;
40595;SDS011;26304;48.794;9.820;2022-12-20T04:09:22;2.45;;;2.25;;
40595;SDS011;26304;48.794;9.820;2022-12-20T04:15:06;2.63;;;2.42;;
40595;SDS011;26304;48.794;9.820;2022-12-20T04:20:51;3.05;;;2.85;;
40595;SDS011;26304;48.794;9.820;2022-12-20T04:26:34;2.70;;;2.50;;
40595;SDS011;26304;48.794;9.820;2022-12-20T04:32:17;2.60;;;2.40;;
40595;SDS011;26304;48.794;9.820;2022-12-20T04:38:00;2.47;;;2.28;;
40595;SDS011;26304;48.794;9.820;2022-12-20T04:43:42;2.55;;;2.38;;
40595;SDS011;26304;48.794;9.820;2022-12-20T04:49:26;2.38;;;2.17;;
40595;SDS011;26304;48.794;9.820;2022-12-20T04:55:08;2.50;;;2.30;;
40595;SDS011;26304;48.794;9.820;2022-12-20T05:00:51;2.60;;;2.40;;
40595;SDS011;26304;48.794;9.820;2022-12-20T05:06:34;2.28;;;1.92;;
40595;SDS011;26304;48.794;9.820;2022-12-20T05:12:17;2.50;;;2.30;;
40595;SDS011;26304;48.794;9.820;2022-12-20T05:17:59;2.33;;;2.17;;
40595;SDS011;26304;48.794;9.820;2022-12-20T05:23:43;2.15;;;2.05;;
40595;SDS011;26304;48.794;9.820;2022-12-20T05:29:43;3.40;;;2.30;;
40595;SDS011;26304;48.794;9.820;2022-12-20T05:35:26;2.35;;;2.15;;
40595;SDS011;26304;48.794;9.820;2022-12-20T05:41:09;4.47;;;2.15;;
40595;SDS011;26304;48.794;9.820;2022-12-20T05:46:52;2.08;;;1.92;;
40595;SDS011;26304;48.794;9.820;2022-12-20T05:52:34;3.13;;;2.13;;
40595;SDS011;26304;48.794;9.820;2022-12-20T05:58:18;3.58;;;2.38;;
40595;SDS011;26304;48.794;9.820;2022-12-20T06:04:00;2.70;;;2.28;;
40595;SDS011;26304;48.794;9.820;2022-12-20T06:09:43;3.75;;;2.70;;
40595;SDS011;26304;48.794;9.820;2022-12-20T06:15:27;2.20;;;2.00;;
40595;SDS011;26304;48.794;9.820;2022-12-20T06:21:10;2.85;;;2.55;;
40595;SDS011;26304;48.794;9.820;2022-12-20T06:26:53;2.78;;;2.50;;
40595;SDS011;26304;48.794;9.820;2022-12-20T06:32:36;5.68;;;2.42;;
40595;SDS011;26304;48.794;9.820;2022-12-20T06:38:19;2.75;;;2.45;;
40595;SDS011;26304;48.794;9.820;2022-12-20T06:44:02;3.17;;;2.50;;
40595;SDS011;26304;48.794;9.820;2022-12-20T06:49:46;3.80;;;3.13;;
40595;SDS011;26304;48.794;9.820;2022-12-20T06:55:28;4.35;;;2.25;;
40595;SDS011;26304;48.794;9.820;2022-12-20T07:01:10;2.55;;;2.35;;
40595;SDS011;26304;48.794;9.820;2022-12-20T07:06:54;4.55;;;2.83;;
40595;SDS011;26304;48.794;9.820;2022-12-20T07:12:37;2.40;;;2.20;;
40595;SDS011;26304;48.794;9.820;2022-12-20T07:18:20;3.50;;;2.63;;
40595;SDS011;26304;48.794;9.820;2022-12-20T07:24:05;3.38;;;2.22;;
40595;SDS011;26304;48.794;9.820;2022-12-20T07:29:48;3.85;;;2.70;;
40595;SDS011;26304;48.794;9.820;2022-12-20T07:35:30;2.60;;;2.28;;
40595;SDS011;26304;48.794;9.820;2022-12-20T07:41:15;2.50;;;2.30;;
40595;SDS011;26304;48.794;9.820;2022-12-20T07:46:58;2.83;;;2.30;;
40595;SDS011;26304;48.794;9.820;2022-12-20T07:52:41;3.67;;;2.17;;
40595;SDS011;26304;48.794;9.820;2022-12-20T07:58:28;5.03;;;2.67;;
40595;SDS011;26304;48.794;9.820;2022-12-20T08:04:13;2.58;;;2.30;;
40595;SDS011;26304;48.794;9.820;2022-12-20T08:09:59;2.92;;;2.30;;
40595;SDS011;26304;48.794;9.820;2022-12-20T08:15:43;4.45;;;2.60;;
40595;SDS011;26304;48.794;9.820;2022-12-20T08:21:25;3.35;;;2.70;;
40595;SDS011;26304;48.794;9.820;2022-12-20T08:27:08;2.72;;;2.30;;
40595;SDS011;26304;48.794;9.820;2022-12-20T08:32:52;3.65;;;2.50;;
40595;SDS011;26304;48.794;9.820;2022-12-20T08:38:35;2.63;;;2.42;;
40595;SDS011;26304;48.794;9.820;2022-12-20T08:44:18;2.85;;;2.55;;
40595;SDS011;26304;48.794;9.820;2022-12-20T08:50:02;2.53;;;2.20;;
40595;SDS011;26304;48.794;9.820;2022-12-20T08:55:45;2.45;;;2.25;;
40595;SDS011;26304;48.794;9.820;2022-12-20T09:01:27;3.13;;;2.15;;
40595;SDS011;26304;48.794;9.820;2022-12-20T09:07:14;3.55;;;2.35;;
40595;SDS011;26304;48.794;9.820;2022-12-20T09:12:57;3.70;;;2.40;;
40595;SDS011;26304;48.794;9.820;2022-12-20T09:18:39;2.63;;;2.42;;
40595;SDS011;26304;48.794;9.820;2022-12-20T09:24:23;2.33;;;2.15;;
40595;SDS011;26304;48.794;9.820;2022-12-20T09:30:06;3.60;;;2.15;;
40595;SDS011;26304;48.794;9.820;2022-12-20T09:35:49;2.60;;;2.15;;
40595;SDS011;26304;48.794;9.820;2022-12-20T09:41:33;4.22;;;2.50;;
40595;SDS011;26304;48.794;9.820;2022-12-20T09:47:20;2.40;;;2.20;;
40595;SDS011;26304;48.794;9.820;2022-12-20T09:53:09;2.30;;;2.10;;
40595;SDS011;26304;48.794;9.820;2022-12-20T09:59:04;2.45;;;2.20;;
40595;SDS011;26304;48.794;9.820;2022-12-20T10:04:49;2.50;;;2.30;;
40595;SDS011;26304;48.794;9.820;2022-12-20T10:10:37;3.33;;;1.90;;
40595;SDS011;26304;48.794;9.820;2022-12-20T10:16:33;2.60;;;2.03;;
40595;SDS011;26304;48.794;9.820;2022-12-20T10:22:22;1.92;;;1.83;;
40595;SDS011;26304;48.794;9.820;2022-12-20T10:28:10;2.90;;;2.22;;
40595;SDS011;26304;48.794;9.820;2022-12-20T10:33:56;2.10;;;1.90;;
40595;SDS011;26304;48.794;9.820;2022-12-20T10:39:39;2.10;;;1.90;;
40595;SDS011;26304;48.794;9.820;2022-12-20T10:45:26;2.50;;;2.20;;
40595;SDS011;26304;48.794;9.820;2022-12-20T10:51:17;2.20;;;2.00;;
40595;SDS011;26304;48.794;9.820;2022-12-20T10:57:01;2.70;;;1.65;;
40595;SDS011;26304;48.794;9.820;2022-12-20T11:03:01;1.98;;;1.70;;
40595;SDS011;26304;48.794;9.820;2022-12-20T11:08:53;1.90;;;1.80;;
40595;SDS011;26304;48.794;9.820;2022-12-20T11:14:35;1.67;;;1.58;;
40595;SDS011;26304;48.794;9.820;2022-12-20T11:20:24;3.70;;;1.95;;
40595;SDS011;26304;48.794;9.820;2022-12-20T11:26:22;2.67;;;2.47;;
40595;SDS011;26304;48.794;9.820;2022-12-20T11:32:19;2.10;;;2.00;;
40595;SDS011;26304;48.794;9.820;2022-12-20T11:38:15;2.63;;;2.28;;
40595;SDS011;26304;48.794;9.820;2022-12-20T11:44:11;2.20;;;2.00;;
40595;SDS011;26304;48.794;9.820;2022-12-20T11:50:11;2.47;;;2.28;;
40595;SDS011;26304;48.794;9.820;2022-12-20T11:56:02;2.70;;;1.65;;
40595;SDS011;26304;48.794;9.820;2022-12-20T12:01:54;1.90;;;1.80;;
40595;SDS011;26304;48.794;9.820;2022-12-20T12:07:43;2.13;;;1.92;;
40595;SDS011;26304;48.794;9.820;2022-12-20T12:13:34;2.22;;;2.03;;
40595;SDS011;26304;48.794;9.820;2022-12-20T12:19:21;2.08;;;1.98;;
40595;SDS011;26304;48.794;9.820;2022-12-20T12:25:08;1.92;;;1.83;;
40595;SDS011;26304;48.794;9.820;2022-12-20T12:30:56;2.30;;;2.10;;
40595;SDS011;26304;48.794;9.820;2022-12-20T12:36:58;2.17;;;1.98;;
40595;SDS011;26304;48.794;9.820;2022-12-20T12:43:04;2.63;;;1.70;;
40595;SDS011;26304;48.794;9.820;2022-12-20T12:48:59;4.00;;;1.98;;
40595;SDS011;26304;48.794;9.820;2022-12-20T12:54:47;1.80;;;1.70;;
40595;SDS011;26304;48.794;9.820;2022-12-20T13:06:53;1.70;;;1.60;;
40595;SDS011;26304;48.794;9.820;2022-12-20T13:12:54;2.28;;;2.05;;
40595;SDS011;26304;48.794;9.820;2022-12-20T13:24:46;2.10;;;1.90;;
40595;SDS011;26304;48.794;9.820;2022-12-20T13:30:37;1.70;;;1.60;;
40595;SDS011;26304;48.794;9.820;2022-12-20T13:36:30;2.28;;;1.90;;
40595;SDS011;26304;48.794;9.820;2022-12-20T13:42:16;1.67;;;1.58;;
40595;SDS011;26304;48.794;9.820;2022-12-20T13:48:11;1.38;;;1.27;;
40595;SDS011;26304;48.794;9.820;2022-12-20T13:53:59;1.40;;;1.30;;
40595;SDS011;26304;48.794;9.820;2022-12-20T13:59:44;1.23;;;1.23;;
40595;SDS011;26304;48.794;9.820;2022-12-20T14:05:33;1.00;;;1.00;;
40595;SDS011;26304;48.794;9.820;2022-12-20T14:11:19;0.80;;;0.80;;
40595;SDS011;26304;48.794;9.820;2022-12-20T14:17:13;0.90;;;0.90;;
40595;SDS011;26304;48.794;9.820;2022-12-20T14:22:59;0.80;;;0.80;;
40595;SDS011;26304;48.794;9.820;2022-12-20T14:28:45;0.73;;;0.60;;
40595;SDS011;26304;48.794;9.820;2022-12-20T14:34:29;1.08;;;0.98;;
40595;SDS011;26304;48.794;9.820;2022-12-20T14:40:17;1.05;;;0.88;;
40595;SDS011;26304;48.794;9.820;2022-12-20T14:46:07;1.48;;;0.70;;
40595;SDS011;26304;48.794;9.820;2022-12-20T14:52:04;0.80;;;0.60;;
40595;SDS011;26304;48.794;9.820;2022-12-20T14:57:55;0.43;;;0.43;;
40595;SDS011;26304;48.794;9.820;2022-12-20T15:03:47;0.40;;;0.40;;
40595;SDS011;26304;48.794;9.820;2022-12-20T15:09:30;0.70;;;0.40;;
40595;SDS011;26304;48.794;9.820;2022-12-20T15:15:14;0.43;;;0.43;;
40595;SDS011;26304;48.794;9.820;2022-12-20T15:20:59;0.30;;;0.30;;
40595;SDS011;26304;48.794;9.820;2022-12-20T15:26:44;0.40;;;0.40;;
40595;SDS011;26304;48.794;9.820;2022-12-20T15:32:28;0.40;;;0.40;;
40595;SDS011;26304;48.794;9.820;2022-12-20T15:38:12;0.30;;;0.30;;
40595;SDS011;26304;48.794;9.820;2022-12-20T15:43:58;0.32;;;0.32;;
40595;SDS011;26304;48.794;9.820;2022-12-20T15:49:43;0.30;;;0.30;;
40595;SDS011;26304;48.794;9.820;2022-12-20T15:55:25;0.20;;;0.20;;
40595;SDS011;26304;48.794;9.820;2022-12-20T16:01:08;0.22;;;0.22;;
40595;SDS011;26304;48.794;9.820;2022-12-20T16:06:55;0.30;;;0.30;;
40595;SDS011;26304;48.794;9.820;2022-12-20T16:12:37;0.20;;;0.20;;
40595;SDS011;26304;48.794;9.820;2022-12-20T16:18:21;0.30;;;0.30;;
40595;SDS011;26304;48.794;9.820;2022-12-20T16:24:05;0.30;;;0.30;;
40595;SDS011;26304;48.794;9.820;2022-12-20T16:29:51;0.40;;;0.40;;
40595;SDS011;26304;48.794;9.820;2022-12-20T16:35:34;0.25;;;0.25;;
40595;SDS011;26304;48.794;9.820;2022-12-20T16:41:19;0.35;;;0.35;;
40595;SDS011;26304;48.794;9.820;2022-12-20T16:47:03;0.85;;;0.43;;
40595;SDS011;26304;48.794;9.820;2022-12-20T16:52:46;3.70;;;0.80;;
40595;SDS011;26304;48.794;9.820;2022-12-20T16:58:31;0.82;;;0.50;;
40595;SDS011;26304;48.794;9.820;2022-12-20T17:04:14;0.73;;;0.73;;
40595;SDS011;26304;48.794;9.820;2022-12-20T17:09:58;2.65;;;1.20;;
40595;SDS011;26304;48.794;9.820;2022-12-20T17:15:43;2.47;;;0.98;;
40595;SDS011;26304;48.794;9.820;2022-12-20T17:21:28;0.90;;;0.90;;
40595;SDS011;26304;48.794;9.820;2022-12-20T17:27:16;0.65;;;0.65;;
40595;SDS011;26304;48.794;9.820;2022-12-20T17:33:00;0.70;;;0.70;;
40595;SDS011;26304;48.794;9.820;2022-12-20T17:38:42;0.80;;;0.80;;
40595;SDS011;26304;48.794;9.820;2022-12-20T17:44:25;1.50;;;1.40;;
40595;SDS011;26304;48.794;9.820;2022-12-20T17:50:10;1.30;;;1.17;;
40595;SDS011;26304;48.794;9.820;2022-12-20T17:55:53;0.98;;;0.98;;
40595;SDS011;26304;48.794;9.820;2022-12-20T18:01:35;0.90;;;0.90;;
40595;SDS011;26304;48.794;9.820;2022-12-20T18:07:19;1.27;;;0.80;;
40595;SDS011;26304;48.794;9.820;2022-12-20T18:13:02;0.90;;;0.90;;
40595;SDS011;26304;48.794;9.820;2022-12-20T18:18:44;1.00;;;1.00;;
40595;SDS011;26304;48.794;9.820;2022-12-20T18:24:28;0.77;;;0.70;;
40595;SDS011;26304;48.794;9.820;2022-12-20T18:30:11;0.70;;;0.70;;
40595;SDS011;26304;48.794;9.820;2022-12-20T18:36:00;1.00;;;1.00;;
40595;SDS011;26304;48.794;9.820;2022-12-20T18:41:46;1.30;;;1.05;;
40595;SDS011;26304;48.794;9.820;2022-12-20T18:47:30;1.00;;;1.00;;
40595;SDS011;26304;48.794;9.820;2022-12-20T18:53:13;1.00;;;1.00;;
40595;SDS011;26304;48.794;9.820;2022-12-20T18:58:57;1.15;;;1.00;;
40595;SDS011;26304;48.794;9.820;2022-12-20T19:04:39;1.38;;;0.70;;
40595;SDS011;26304;48.794;9.820;2022-12-20T19:10:22;1.00;;;1.00;;
40595;SDS011;26304;48.794;9.820;2022-12-20T19:16:07;1.90;;;1.05;;
40595;SDS011;26304;48.794;9.820;2022-12-20T19:21:53;2.97;;;1.00;;
40595;SDS011;26304;48.794;9.820;2022-12-20T19:27:35;1.00;;;0.80;;
40595;SDS011;26304;48.794;9.820;2022-12-20T19:33:21;1.77;;;1.45;;
40595;SDS011;26304;48.794;9.820;2022-12-20T19:39:11;2.25;;;1.45;;
40595;SDS011;26304;48.794;9.820;2022-12-20T19:44:54;2.05;;;1.15;;
40595;SDS011;26304;48.794;9.820;2022-12-20T19:50:38;2.97;;;1.35;;
40595;SDS011;26304;48.794;9.820;2022-12-20T19:56:21;0.82;;;0.80;;
40595;SDS011;26304;48.794;9.820;2022-12-20T20:02:06;1.00;;;0.88;;
40595;SDS011;26304;48.794;9.820;2022-12-20T20:07:49;1.70;;;1.17;;
40595;SDS011;26304;48.794;9.820;2022-12-20T20:13:32;1.77;;;1.10;;
40595;SDS011;26304;48.794;9.820;2022-12-20T20:19:14;1.00;;;0.85;;
40595;SDS011;26304;48.794;9.820;2022-12-20T20:24:58;1.50;;;0.82;;
40595;SDS011;26304;48.794;9.820;2022-12-20T20:30:41;4.70;;;1.80;;
40595;SDS011;26304;48.794;9.820;2022-12-20T20:36:24;2.40;;;1.80;;
40595;SDS011;26304;48.794;9.820;2022-12-20T20:42:09;1.35;;;1.25;;
40595;SDS011;26304;48.794;9.820;2022-12-20T20:47:53;1.35;;;1.17;;
40595;SDS011;26304;48.794;9.820;2022-12-20T20:53:35;1.17;;;0.90;;
40595;SDS011;26304;48.794;9.820;2022-12-20T20:59:19;2.88;;;1.73;;
40595;SDS011;26304;48.794;9.820;2022-12-20T21:05:02;5.13;;;3.70;;
40595;SDS011;26304;48.794;9.820;2022-12-20T21:10:45;8.60;;;7.85;;
40595;SDS011;26304;48.794;9.820;2022-12-20T21:16:29;8.63;;;7.80;;
40595;SDS011;26304;48.794;9.820;2022-12-20T21:22:12;9.13;;;8.43;;
40595;SDS011;26304;48.794;9.820;2022-12-20T21:27:54;8.68;;;7.97;;
40595;SDS011;26304;48.794;9.820;2022-12-20T21:33:39;8.02;;;7.32;;
40595;SDS011;26304;48.794;9.820;2022-12-20T21:39:21;8.23;;;7.53;;
40595;SDS011;26304;48.794;9.820;2022-12-20T21:45:04;8.07;;;7.38;;
40595;SDS011;26304;48.794;9.820;2022-12-20T21:50:57;7.30;;;6.68;;
40595;SDS011;26304;48.794;9.820;2022-12-20T21:56:40;6.47;;;5.95;;
40595;SDS011;26304;48.794;9.820;2022-12-20T22:02:23;6.53;;;5.93;;
40595;SDS011;26304;48.794;9.820;2022-12-20T22:08:07;7.47;;;6.85;;
40595;SDS011;26304;48.794;9.820;2022-12-20T22:13:51;7.78;;;7.07;;
40595;SDS011;26304;48.794;9.820;2022-12-20T22:19:35;7.32;;;6.72;;
40595;SDS011;26304;48.794;9.820;2022-12-20T22:25:19;8.52;;;7.82;;
40595;SDS011;26304;48.794;9.820;2022-12-20T22:31:04;7.80;;;7.10;;
40595;SDS011;26304;48.794;9.820;2022-12-20T22:36:48;7.95;;;7.25;;
40595;SDS011;26304;48.794;9.820;2022-12-20T22:42:32;8.40;;;7.68;;
40595;SDS011;26304;48.794;9.820;2022-12-20T22:48:14;8.88;;;7.97;;
40595;SDS011;26304;48.794;9.820;2022-12-20T22:53:57;8.60;;;7.75;;
40595;SDS011;26304;48.794;9.820;2022-12-20T22:59:41;9.20;;;8.40;;
40595;SDS011;26304;48.794;9.820;2022-12-20T23:05:23;9.68;;;8.73;;
40595;SDS011;26304;48.794;9.820;2022-12-20T23:11:08;9.77;;;8.93;;
40595;SDS011;26304;48.794;9.820;2022-12-20T23:17:14;11.68;;;10.55;;
40595;SDS011;26304;48.794;9.820;2022-12-20T23:22:57;11.45;;;10.25;;
40595;SDS011;26304;48.794;9.820;2022-12-20T23:28:39;12.52;;;11.05;;
40595;SDS011;26304;48.794;9.820;2022-12-20T23:34:23;12.60;;;11.30;;
40595;SDS011;26304;48.794;9.820;2022-12-20T23:40:06;11.07;;;9.85;;
40595;SDS011;26304;48.794;9.820;2022-12-20T23:45:50;9.95;;;9.05;;
40595;SDS011;26304;48.794;9.820;2022-12-20T23:51:34;11.23;;;9.98;;
40595;SDS011;26304;48.794;9.820;2022-12-20T23:57:16;9.40;;;8.50;;
